Flight Track Log - Related Links

Times and Time Zones

All times are in EDT time to prevent confusion due to time zone crossing. See the EGF9800 flight status page for this flight to view local times or setup timezone preferences in your user account.

Time Position Orientation Groundspeed Altitude Reporting Facility
EDT Latitude Longitude Course Direction KTS MPH feet Rate Location/Type
Sat 11:25:52 AM 37.9542 -78.9153 251° West 308 354 15,900  Level Washington Center
Sat 11:26:53 AM 37.9214 -79.0375 251° West 321 369 18,300 2,557 Climbing Washington Center
Sat 11:27:54 AM 37.9058 -79.1422 259° West 320 368 21,100 1,866 Climbing Washington Center
Sat 11:28:52 AM 37.9256 -79.2511 283° West 303 349 22,000 458 Climbing Washington Center
Sat 11:29:52 AM 37.9494 -79.3603 286° West 334 384 22,000  Level Washington Center
Sat 11:30:54 AM 37.9725 -79.4878 283° West 359 413 22,000  Level Washington Center
Sat 11:31:54 AM 37.9931 -79.6206 281° West 377 434 22,000 458 Level Washington Center
Sat 11:32:52 AM 38.0192 -79.7697 283° West 387 445 22,900 1,311 Climbing Washington Center
Sat 11:33:53 AM 38.0436 -79.9056 283° West 397 457 24,600 1,686 Climbing Washington Center
Sat 11:34:53 AM 38.0658 -80.0386 282° West 397 457 26,300 1,587 Climbing Washington Center
Sat 11:35:54 AM 38.1286 -80.1428 307° West 397 457 27,800 843 Climbing Washington Center
Sat 11:36:54 AM 38.2056 -80.2558 311° West 413 475 28,000 102 Climbing Washington Center
Sat 11:37:52 AM 38.2844 -80.3719 311° West 427 491 28,000  Level Washington Center
Sat 11:39:29 AM 38.4153 -80.5600 312° West 458 527 28,000  Level Indianapolis Center
Sat 11:40:30 AM 38.4986 -80.6858 310° West 463 533 28,000 -49 Level Indianapolis Center
Sat 11:41:32 AM 38.6008 -80.8372 311° West 470 541 27,900 -537 Descending Indianapolis Center
Sat 11:42:33 AM 38.6839 -80.9611 311° West 462 532 26,900 -1,024 Descending Indianapolis Center
Sat 11:43:35 AM 38.7644 -81.0839 310° West 454 522 25,800 -1,073 Descending Indianapolis Center
Sat 11:44:36 AM 38.8447 -81.2036 311° West 451 519 24,700 -934 Descending Indianapolis Center
Sat 11:45:37 AM 38.9239 -81.3250 310° West 450 518 23,900 -1,220 Descending Indianapolis Center
Sat 11:46:39 AM 39.0019 -81.4444 310° West 442 509 22,200 -1,756 Descending Indianapolis Center
Sat 11:47:40 AM 39.0964 -81.5894 310° West 445 512 20,300 -1,659 Descending Indianapolis Center
Sat 11:48:42 AM 39.1700 -81.7033 310° West 427 491 18,800 -1,366 Descending Indianapolis Center
Sat 11:49:43 AM 39.2428 -81.8125 311° West 409 471 17,500 -1,366 Descending Indianapolis Center
Sat 11:50:45 AM 39.3122 -81.9211 310° West 397 457 16,000 -1,571 Descending Indianapolis Center
Sat 11:51:49 AM 39.3900 -82.0472 309° West 401 461 14,200 -1,525 Descending Indianapolis Center
Sat 11:52:47 AM 39.4542 -82.1403 312° West 397 457 12,900 -1,350 Descending Indianapolis Center
Sat 11:53:49 AM 39.5211 -82.2469 309° West 384 442 11,500 -1,018 Descending Indianapolis Center
Sat 11:54:39 AM 39.5839 -82.3469 309° West 377 434 11,000 -270 Descending Indianapolis Center
Sat 11:55:40 AM 39.6611 -82.4428 316° Northwest 387 445 11,000 -397 Level Indianapolis Center
Sat 11:56:40 AM 39.7389 -82.5333 318° Northwest 382 440 10,200 -496 Descending Indianapolis Center
Sat 11:57:41 AM 39.8153 -82.6158 320° Northwest 353 406 10,000 -1,140 Descending Indianapolis Center
Sat 11:58:41 AM 39.8683 -82.7006 309° West 268 308 7,900 -1,983 Descending Indianapolis Center
Sat 11:59:42 AM 39.8931 -82.7969 289° West 275 316 6,000 -832 Descending Indianapolis Center
Sat 12:00:58 PM 39.9094 -82.9119 281° West 277 319 6,000 -595 Level Indianapolis Center
Sat 12:01:43 PM 39.9144 -82.9914 275° West 269 310 4,800 -1,132 Descending Indianapolis Center
Sat 12:02:44 PM 39.9200 -83.0878 274° West 272 313 4,000 -466 Descending Indianapolis Center
Sat 12:03:39 PM 39.9306 -83.1742 279° West 263 303 3,900 -522 Descending Indianapolis Center
Sat 12:04:39 PM 39.9914 -83.1758 359° North 232 267 3,000 -446 Descending Indianapolis Center
Sat 12:05:40 PM 40.0047 -83.1017 77° East 215 247 3,000 -198 Level Indianapolis Center
Sat 12:06:40 PM 40.0014 -83.0272 93° East 212 244 2,600 -595 Descending Indianapolis Center
Sat 12:07:41 PM 39.9983 -82.9722 94° East 137 158 1,800 -703 Descending Indianapolis Center
Sat 12:08:48 PM 39.9969 -82.9200 92° East 118 136 1,100 -627 Descending Indianapolis Center

Login

Don't have an account? Register now (free) for customized features, flight alerts, and more!